createdAt,value
2019-05-29T00:02:04.058Z,100716.89
2019-05-29T00:04:31.049Z,100713.69
2019-05-29T00:06:58.124Z,100725.92
2019-05-29T00:09:24.963Z,100730.30
2019-05-29T00:11:51.940Z,100732.86
2019-05-29T00:14:26.907Z,100736.45
2019-05-29T00:16:47.773Z,100744.60
2019-05-29T00:19:14.656Z,100753.64
2019-05-29T00:21:41.875Z,100753.87
2019-05-29T00:24:08.917Z,100760.47
2019-05-29T00:26:37.300Z,100766.86
2019-05-29T00:29:04.075Z,100771.43
2019-05-29T00:31:32.160Z,100777.44
2019-05-29T00:33:58.926Z,100783.23
2019-05-29T00:36:26.183Z,100785.42
2019-05-29T00:38:53.389Z,100791.09
2019-05-29T00:41:20.099Z,100785.87
2019-05-29T00:43:47.183Z,100782.88
2019-05-29T00:46:13.735Z,100783.19
2019-05-29T00:48:40.659Z,100779.59
2019-05-29T00:51:07.350Z,100784.45
2019-05-29T00:53:34.213Z,100780.05
2019-05-29T00:56:01.227Z,100786.89
2019-05-29T00:58:27.992Z,100789.89
2019-05-29T01:00:54.643Z,100786.02
2019-05-29T01:03:21.589Z,100794.48
2019-05-29T01:05:48.579Z,100796.29
2019-05-29T01:08:16.475Z,100797.61
2019-05-29T01:10:43.553Z,100802.91
2019-05-29T01:13:11.007Z,100802.09
2019-05-29T01:15:37.986Z,100811.27
2019-05-29T01:18:04.803Z,100809.13
2019-05-29T01:20:31.628Z,100810.46
2019-05-29T01:22:58.881Z,100820.05
2019-05-29T01:25:26.404Z,100814.34
2019-05-29T01:27:53.787Z,100813.06
2019-05-29T01:30:23.414Z,100825.41
2019-05-29T01:32:51.024Z,100832.42
2019-05-29T01:35:18.499Z,100828.05
2019-05-29T01:37:46.166Z,100830.28
2019-05-29T01:40:20.960Z,100832.47
2019-05-29T01:42:43.522Z,100828.91
2019-05-29T01:45:11.374Z,100827.99
2019-05-29T01:47:38.989Z,100827.55
2019-05-29T01:50:06.780Z,100832.39
2019-05-29T01:52:35.254Z,100838.48
2019-05-29T01:55:02.941Z,100841.17
2019-05-29T01:57:30.405Z,100846.38
2019-05-29T01:59:57.987Z,100840.66
2019-05-29T02:02:25.312Z,100845.94
2019-05-29T02:04:52.972Z,100857.80
2019-05-29T02:07:20.395Z,100851.64
2019-05-29T02:09:48.066Z,100854.73
2019-05-29T02:12:16.262Z,100861.77
2019-05-29T02:14:43.955Z,100871.39
2019-05-29T02:17:11.632Z,100864.83
2019-05-29T02:19:40.310Z,100870.95
2019-05-29T02:22:07.848Z,100873.16
2019-05-29T02:24:35.237Z,100870.50
2019-05-29T02:27:02.431Z,100875.80
2019-05-29T02:29:29.660Z,100872.80
2019-05-29T02:31:57.589Z,100881.25
2019-05-29T02:34:27.293Z,100883.39
2019-05-29T02:36:54.419Z,100884.20
2019-05-29T02:39:23.094Z,100889.09
2019-05-29T02:41:51.299Z,100888.63
2019-05-29T02:44:19.266Z,100903.55
2019-05-29T02:46:46.473Z,100907.10
2019-05-29T02:49:14.183Z,100901.75
2019-05-29T02:51:41.449Z,100907.91
2019-05-29T02:54:09.948Z,100911.87
2019-05-29T02:56:37.466Z,100916.30
2019-05-29T02:59:04.740Z,100921.61
2019-05-29T03:01:32.450Z,100925.56
2019-05-29T03:04:00.078Z,100928.14
2019-05-29T03:06:28.157Z,100936.02
2019-05-29T03:08:55.716Z,100940.48
2019-05-29T03:11:25.034Z,100944.80
2019-05-29T03:13:52.596Z,100950.48
2019-05-29T03:16:19.889Z,100953.98
2019-05-29T03:18:47.117Z,100944.81
2019-05-29T03:21:14.753Z,100957.09
2019-05-29T03:23:42.299Z,100958.83
2019-05-29T03:26:09.775Z,100969.37
2019-05-29T03:28:38.344Z,100980.76
2019-05-29T03:31:06.124Z,100982.97
2019-05-29T03:33:40.815Z,100980.78
2019-05-29T03:36:03.571Z,100979.96
2019-05-29T03:38:32.752Z,100990.91
2019-05-29T03:41:00.551Z,100996.61
2019-05-29T03:43:28.737Z,101001.45
2019-05-29T03:45:57.039Z,101004.48
2019-05-29T03:48:25.975Z,101009.73
2019-05-29T03:50:54.161Z,101011.06
2019-05-29T03:53:21.726Z,101016.30
2019-05-29T03:55:49.393Z,101018.53
2019-05-29T03:58:17.175Z,101026.43
2019-05-29T04:00:46.290Z,101036.06
2019-05-29T04:03:14.143Z,101043.09
2019-05-29T04:05:41.884Z,101047.48
2019-05-29T04:08:09.209Z,101048.36
2019-05-29T04:10:39.592Z,101062.86
2019-05-29T04:13:07.305Z,101056.28
2019-05-29T04:15:36.511Z,101053.64
2019-05-29T04:18:05.635Z,101060.21
2019-05-29T04:20:38.427Z,101069.41
2019-05-29T04:23:06.855Z,101073.82
2019-05-29T04:25:40.568Z,101075.99
2019-05-29T04:28:06.980Z,101078.64
2019-05-29T04:30:36.310Z,101087.86
2019-05-29T04:33:04.330Z,101095.30
2019-05-29T04:35:32.575Z,101090.48
2019-05-29T04:38:00.292Z,101100.56
2019-05-29T04:40:28.633Z,101100.55
2019-05-29T04:42:56.489Z,101107.16
2019-05-29T04:45:23.656Z,101113.28
2019-05-29T04:47:51.113Z,101122.44
2019-05-29T04:50:18.434Z,101131.08
2019-05-29T04:52:45.738Z,101138.11
2019-05-29T04:55:13.367Z,101143.31
2019-05-29T04:57:40.790Z,101135.30
2019-05-29T05:00:08.620Z,101138.34
2019-05-29T05:02:37.270Z,101147.78
2019-05-29T05:05:05.004Z,101151.60
2019-05-29T05:07:33.204Z,101150.55
2019-05-29T05:10:00.792Z,101152.68
2019-05-29T05:12:29.494Z,101152.68
2019-05-29T05:14:57.405Z,101156.05
2019-05-29T05:17:26.496Z,101154.17
2019-05-29T05:19:55.462Z,101156.27
2019-05-29T05:22:22.827Z,101156.43
2019-05-29T05:24:50.029Z,101163.82
2019-05-29T05:27:17.419Z,101163.80
2019-05-29T05:29:44.619Z,101171.31
2019-05-29T05:32:11.944Z,101175.39
2019-05-29T05:34:39.085Z,101186.93
2019-05-29T05:37:06.316Z,101193.17
2019-05-29T05:39:35.154Z,101188.74
2019-05-29T05:42:02.662Z,101190.48
2019-05-29T05:44:30.751Z,101193.56
2019-05-29T05:46:58.131Z,101200.70
2019-05-29T05:49:25.392Z,101199.92
2019-05-29T05:51:52.801Z,101194.33
2019-05-29T05:54:20.016Z,101194.33
2019-05-29T05:56:47.514Z,101212.66
2019-05-29T05:59:15.751Z,101220.62
2019-05-29T06:01:43.014Z,101220.14
2019-05-29T06:04:10.252Z,101231.22
2019-05-29T06:06:38.092Z,101220.33
2019-05-29T06:09:07.020Z,101220.33
2019-05-29T06:11:34.413Z,101237.75
2019-05-29T06:14:02.064Z,101237.75
2019-05-29T06:16:29.528Z,101240.31
2019-05-29T06:18:57.281Z,101235.37
2019-05-29T06:21:24.879Z,101230.30
2019-05-29T06:23:52.189Z,101232.31
2019-05-29T06:26:20.142Z,101239.08
2019-05-29T06:28:47.560Z,101239.08
2019-05-29T06:31:14.769Z,101236.20
2019-05-29T06:33:41.990Z,101234.00
2019-05-29T06:36:09.397Z,101236.20
2019-05-29T06:38:37.610Z,101236.34
2019-05-29T06:41:05.104Z,101252.81
2019-05-29T06:43:32.179Z,101248.34
2019-05-29T06:45:59.624Z,101245.88
2019-05-29T06:48:41.688Z,101252.42
2019-05-29T06:50:57.567Z,101250.00
2019-05-29T06:53:25.335Z,101247.71
2019-05-29T06:55:55.048Z,101252.84
2019-05-29T06:58:22.307Z,101256.20
2019-05-29T07:00:49.815Z,101261.95
2019-05-29T07:03:18.450Z,101266.96
2019-05-29T07:05:50.811Z,101276.47
2019-05-29T07:08:20.899Z,101272.62
2019-05-29T07:10:44.623Z,101275.75
2019-05-29T07:13:12.308Z,101281.72
2019-05-29T07:15:40.767Z,101284.94
2019-05-29T07:18:08.191Z,101288.95
2019-05-29T07:20:36.523Z,101298.02
2019-05-29T07:23:03.932Z,101289.27
2019-05-29T07:25:31.227Z,101297.84
2019-05-29T07:27:58.617Z,101304.16
2019-05-29T07:30:26.214Z,101305.67
2019-05-29T07:32:58.734Z,101311.20
2019-05-29T07:35:23.064Z,101315.11
2019-05-29T07:37:50.426Z,101311.61
2019-05-29T07:40:18.062Z,101313.65
2019-05-29T07:42:51.009Z,101319.60
2019-05-29T07:45:14.805Z,101335.36
2019-05-29T07:47:42.801Z,101341.58
2019-05-29T07:50:11.935Z,101336.68
2019-05-29T07:52:40.816Z,101342.94
2019-05-29T07:55:08.572Z,101340.95
2019-05-29T07:57:35.884Z,101352.16
2019-05-29T08:00:04.562Z,101347.17
2019-05-29T08:02:32.326Z,101351.05
2019-05-29T08:04:59.648Z,101346.34
2019-05-29T08:07:26.851Z,101358.39
2019-05-29T08:09:54.665Z,101354.94
2019-05-29T08:12:22.648Z,101353.67
2019-05-29T08:14:50.368Z,101358.92
2019-05-29T08:17:18.059Z,101368.37
2019-05-29T08:19:59.343Z,101365.66
2019-05-29T08:22:14.888Z,101363.92
2019-05-29T08:24:42.727Z,101367.34
2019-05-29T08:27:10.227Z,101366.16
2019-05-29T08:29:37.999Z,101377.20
2019-05-29T08:32:05.498Z,101372.65
2019-05-29T08:34:32.848Z,101384.98
2019-05-29T08:37:07.100Z,101387.16
2019-05-29T08:39:36.153Z,101385.11
2019-05-29T08:42:21.394Z,101384.70
2019-05-29T08:44:28.058Z,101384.67
2019-05-29T08:47:08.530Z,101386.66
2019-05-29T08:49:26.866Z,101387.96
2019-05-29T08:52:10.470Z,101379.91
2019-05-29T08:54:24.442Z,101384.02
2019-05-29T08:56:52.539Z,101388.11
2019-05-29T08:59:22.145Z,101390.48
2019-05-29T09:01:51.197Z,101393.21
2019-05-29T09:04:19.047Z,101399.81
2019-05-29T09:06:47.069Z,101402.27
2019-05-29T09:09:14.698Z,101413.41
2019-05-29T09:11:43.020Z,101397.62
2019-05-29T09:14:10.462Z,101406.09
2019-05-29T09:16:38.075Z,101417.35
2019-05-29T09:19:05.948Z,101415.18
2019-05-29T09:21:33.511Z,101413.88
2019-05-29T09:24:00.858Z,101412.49
2019-05-29T09:26:30.007Z,101418.11
2019-05-29T09:28:57.541Z,101419.73
2019-05-29T09:31:24.844Z,101436.70
2019-05-29T09:33:52.126Z,101431.91
2019-05-29T09:36:20.697Z,101426.20
2019-05-29T09:38:48.300Z,101435.94
2019-05-29T09:41:16.191Z,101419.52
2019-05-29T09:43:58.147Z,101426.59
2019-05-29T09:46:13.712Z,101442.41
2019-05-29T09:48:49.602Z,101443.05
2019-05-29T09:51:20.708Z,101447.39
2019-05-29T09:53:40.019Z,101438.95
2019-05-29T09:56:07.343Z,101459.84
2019-05-29T09:58:34.785Z,101458.95
2019-05-29T10:01:18.358Z,101467.59
2019-05-29T10:03:31.540Z,101454.31
2019-05-29T10:05:59.575Z,101464.70
2019-05-29T10:08:28.000Z,101450.07
2019-05-29T10:11:02.619Z,101459.28
2019-05-29T10:13:25.577Z,101452.53
2019-05-29T10:15:54.278Z,101450.36
2019-05-29T10:18:31.917Z,101467.87
2019-05-29T10:20:52.635Z,101470.95
2019-05-29T10:23:20.288Z,101466.89
2019-05-29T10:25:49.025Z,101476.53
2019-05-29T10:28:17.464Z,101477.97
2019-05-29T10:30:46.176Z,101475.17
2019-05-29T10:33:13.774Z,101482.44
2019-05-29T10:35:42.578Z,101478.88
2019-05-29T10:38:09.971Z,101478.30
2019-05-29T10:40:37.263Z,101472.11
2019-05-29T10:43:04.710Z,101469.52
2019-05-29T10:45:32.055Z,101472.58
2019-05-29T10:47:59.512Z,101471.16
2019-05-29T10:50:26.811Z,101474.55
2019-05-29T10:52:54.284Z,101479.30
2019-05-29T10:55:22.841Z,101490.69
2019-05-29T10:57:50.753Z,101482.16
2019-05-29T11:00:19.702Z,101480.52
2019-05-29T11:02:48.152Z,101478.56
2019-05-29T11:05:16.679Z,101496.22
2019-05-29T11:07:45.722Z,101499.80
2019-05-29T11:10:14.114Z,101511.87
2019-05-29T11:12:41.862Z,101500.75
2019-05-29T11:15:20.618Z,101504.08
2019-05-29T11:17:40.705Z,101506.84
2019-05-29T11:20:09.026Z,101511.16
2019-05-29T11:22:36.721Z,101510.69
2019-05-29T11:25:21.592Z,101505.98
2019-05-29T11:27:37.631Z,101502.62
2019-05-29T11:30:05.495Z,101498.00
2019-05-29T11:32:33.255Z,101509.79
2019-05-29T11:35:02.369Z,101502.39
2019-05-29T11:37:30.032Z,101510.20
2019-05-29T11:39:59.352Z,101517.54
2019-05-29T11:42:28.299Z,101517.57
2019-05-29T11:44:59.444Z,101519.80
2019-05-29T11:47:26.978Z,101509.84
2019-05-29T11:49:55.160Z,101505.09
2019-05-29T11:52:25.146Z,101516.34
2019-05-29T11:54:56.547Z,101520.55
2019-05-29T11:57:23.228Z,101515.13
2019-05-29T11:59:51.835Z,101523.81
2019-05-29T12:02:20.696Z,101526.03
2019-05-29T12:04:48.212Z,101535.59
2019-05-29T12:07:15.629Z,101530.25
2019-05-29T12:09:43.122Z,101533.48
2019-05-29T12:12:10.138Z,101523.79
2019-05-29T12:14:58.139Z,101524.84
2019-05-29T12:17:07.342Z,101537.32
2019-05-29T12:19:36.173Z,101536.38
2019-05-29T12:22:03.929Z,101540.44
2019-05-29T12:24:31.442Z,101538.21
2019-05-29T12:26:58.706Z,101537.48
2019-05-29T12:29:27.089Z,101539.68
2019-05-29T12:31:54.934Z,101539.42
2019-05-29T12:34:22.422Z,101532.98
2019-05-29T12:36:49.807Z,101538.09
2019-05-29T12:39:17.060Z,101532.30
2019-05-29T12:41:44.413Z,101537.35
2019-05-29T12:44:12.309Z,101537.33
2019-05-29T12:46:40.661Z,101542.79
2019-05-29T12:49:08.920Z,101534.80
2019-05-29T12:51:36.859Z,101531.03
2019-05-29T12:54:05.159Z,101535.14
2019-05-29T12:56:33.589Z,101537.03
2019-05-29T12:59:02.546Z,101542.85
2019-05-29T13:01:30.667Z,101542.80
2019-05-29T13:03:58.681Z,101536.41
2019-05-29T13:06:26.536Z,101544.92
2019-05-29T13:11:21.974Z,101540.77
2019-05-29T13:13:49.439Z,101536.73
2019-05-29T13:16:16.613Z,101546.66
2019-05-29T13:18:43.287Z,101546.10
2019-05-29T13:21:10.299Z,101551.13
2019-05-29T13:23:45.054Z,101551.44
2019-05-29T13:26:06.120Z,101548.45
2019-05-29T13:28:33.059Z,101551.72
2019-05-29T13:30:59.865Z,101565.34
2019-05-29T13:33:26.847Z,101559.50
2019-05-29T13:35:56.430Z,101556.17
2019-05-29T13:38:23.000Z,101546.09
2019-05-29T13:40:50.042Z,101541.72
2019-05-29T13:43:16.807Z,101551.12
2019-05-29T13:45:44.039Z,101551.25
2019-05-29T13:48:11.598Z,101559.67
2019-05-29T13:50:38.446Z,101562.47
2019-05-29T13:53:07.607Z,101566.02
2019-05-29T13:55:35.128Z,101565.02
2019-05-29T13:58:03.682Z,101569.34
2019-05-29T14:00:34.175Z,101572.41
2019-05-29T14:03:00.290Z,101565.76
2019-05-29T14:05:27.343Z,101561.02
2019-05-29T14:07:54.372Z,101569.52
2019-05-29T14:10:21.344Z,101565.41
2019-05-29T14:12:48.013Z,101567.94
2019-05-29T14:15:15.265Z,101572.05
2019-05-29T14:17:42.124Z,101571.51
2019-05-29T14:20:09.499Z,101577.70
2019-05-29T14:22:36.342Z,101573.24
2019-05-29T14:25:03.567Z,101578.00
2019-05-29T14:27:30.547Z,101581.41
2019-05-29T14:29:57.256Z,101581.67
2019-05-29T14:32:28.199Z,101584.19
2019-05-29T14:34:52.502Z,101583.30
2019-05-29T14:37:19.019Z,101578.86
2019-05-29T14:39:46.395Z,101581.08
2019-05-29T14:42:13.207Z,101589.17
2019-05-29T14:44:40.160Z,101583.23
2019-05-29T14:47:07.787Z,101583.23
2019-05-29T14:49:37.621Z,101584.82
2019-05-29T14:52:04.547Z,101596.63
2019-05-29T14:54:41.324Z,101604.13
2019-05-29T14:57:08.165Z,101602.39
2019-05-29T14:59:29.687Z,101598.81
2019-05-29T15:01:56.551Z,101598.27
2019-05-29T15:04:23.426Z,101602.63
2019-05-29T15:06:50.249Z,101606.73
2019-05-29T15:09:19.094Z,101610.38
2019-05-29T15:11:45.929Z,101605.69
2019-05-29T15:14:12.536Z,101613.36
2019-05-29T15:16:39.492Z,101617.63
2019-05-29T15:19:06.862Z,101611.41
2019-05-29T15:21:33.976Z,101609.80
2019-05-29T15:24:00.828Z,101614.64
2019-05-29T15:26:27.768Z,101621.70
2019-05-29T15:28:55.533Z,101618.83
2019-05-29T15:31:22.294Z,101629.84
2019-05-29T15:33:50.003Z,101633.87
2019-05-29T15:36:16.982Z,101630.19
2019-05-29T15:38:43.944Z,101628.85
2019-05-29T15:41:10.867Z,101633.96
2019-05-29T15:43:38.020Z,101635.12
2019-05-29T15:46:05.068Z,101634.08
2019-05-29T15:48:31.811Z,101638.56
2019-05-29T15:50:59.300Z,101635.28
2019-05-29T15:53:26.414Z,101638.68
2019-05-29T15:55:53.771Z,101645.47
2019-05-29T15:58:20.671Z,101650.98
2019-05-29T16:00:47.930Z,101649.69
2019-05-29T16:03:15.560Z,101653.44
2019-05-29T16:05:42.886Z,101655.50
2019-05-29T16:08:10.036Z,101657.78
2019-05-29T16:10:36.924Z,101665.58
2019-05-29T16:13:04.027Z,101676.08
2019-05-29T16:15:31.488Z,101667.83
2019-05-29T16:17:58.645Z,101666.02
2019-05-29T16:20:25.645Z,101674.74
2019-05-29T16:22:52.606Z,101672.78
2019-05-29T16:25:37.257Z,101678.10
2019-05-29T16:27:48.903Z,101674.67
2019-05-29T16:30:15.969Z,101678.92
2019-05-29T16:32:42.889Z,101687.22
2019-05-29T16:35:10.973Z,101693.84
2019-05-29T16:37:37.893Z,101695.86
2019-05-29T16:40:07.710Z,101694.34
2019-05-29T16:42:34.979Z,101696.69
2019-05-29T16:45:02.109Z,101700.42
2019-05-29T16:47:29.990Z,101706.31
2019-05-29T16:49:57.049Z,101701.31
2019-05-29T16:52:23.692Z,101705.04
2019-05-29T16:54:50.729Z,101699.11
2019-05-29T16:57:19.130Z,101712.36
2019-05-29T16:59:46.093Z,101714.75
2019-05-29T17:02:13.676Z,101722.31
2019-05-29T17:04:40.560Z,101715.97
2019-05-29T17:07:07.471Z,101720.09
2019-05-29T17:09:34.465Z,101723.34
2019-05-29T17:12:01.177Z,101725.06
2019-05-29T17:14:28.133Z,101729.91
2019-05-29T17:16:54.814Z,101727.91
2019-05-29T17:19:23.046Z,101732.83
2019-05-29T17:21:50.317Z,101731.65
2019-05-29T17:24:18.521Z,101736.30
2019-05-29T17:26:46.027Z,101732.65
2019-05-29T17:29:13.014Z,101740.28
2019-05-29T17:31:42.520Z,101745.06
2019-05-29T17:34:09.448Z,101747.92
2019-05-29T17:36:36.807Z,101748.22
2019-05-29T17:39:05.605Z,101748.09
2019-05-29T17:41:32.836Z,101751.27
2019-05-29T17:44:01.777Z,101757.76
2019-05-29T17:46:28.986Z,101761.88
2019-05-29T17:48:56.324Z,101758.67
2019-05-29T17:51:23.847Z,101766.39
2019-05-29T17:53:50.828Z,101771.36
2019-05-29T17:56:31.741Z,101779.77
2019-05-29T17:58:47.873Z,101770.50
2019-05-29T18:01:14.511Z,101780.89
2019-05-29T18:03:42.872Z,101778.20
2019-05-29T18:06:09.559Z,101791.89
2019-05-29T18:08:36.593Z,101785.09
2019-05-29T18:11:03.699Z,101790.33
2019-05-29T18:13:30.394Z,101799.49
2019-05-29T18:15:57.650Z,101804.89
2019-05-29T18:18:25.635Z,101803.09
2019-05-29T18:20:52.867Z,101812.48
2019-05-29T18:23:19.935Z,101811.22
2019-05-29T18:25:48.721Z,101825.03
2019-05-29T18:28:15.682Z,101820.11
2019-05-29T18:30:42.724Z,101827.99
2019-05-29T18:33:10.869Z,101827.25
2019-05-29T18:35:40.113Z,101829.44
2019-05-29T18:38:07.253Z,101840.03
2019-05-29T18:40:34.225Z,101841.40
2019-05-29T18:43:01.111Z,101849.38
2019-05-29T18:45:29.388Z,101853.80
2019-05-29T18:47:56.740Z,101860.00
2019-05-29T18:50:23.634Z,101858.59
2019-05-29T18:52:51.249Z,101866.24
2019-05-29T18:55:18.501Z,101871.59
2019-05-29T18:57:46.097Z,101876.42
2019-05-29T19:00:13.839Z,101885.28
2019-05-29T19:02:41.112Z,101886.63
2019-05-29T19:05:09.291Z,101891.86
2019-05-29T19:07:36.727Z,101895.44
2019-05-29T19:10:06.641Z,101905.19
2019-05-29T19:12:33.637Z,101903.86
2019-05-29T19:15:00.642Z,101913.57
2019-05-29T19:17:28.017Z,101916.65
2019-05-29T19:19:55.048Z,101916.66
2019-05-29T19:22:24.236Z,101913.97
2019-05-29T19:24:51.578Z,101917.97
2019-05-29T19:27:31.119Z,101926.78
2019-05-29T19:29:47.422Z,101929.41
2019-05-29T19:32:14.875Z,101936.94
2019-05-29T19:34:42.029Z,101932.05
2019-05-29T19:37:09.218Z,101943.05
2019-05-29T19:39:36.329Z,101946.64
2019-05-29T19:42:03.690Z,101949.70
2019-05-29T19:44:30.739Z,101955.84
2019-05-29T19:46:57.885Z,101963.33
2019-05-29T19:49:25.545Z,101958.92
2019-05-29T19:51:53.818Z,101972.14
2019-05-29T19:54:20.872Z,101972.59
2019-05-29T19:56:47.704Z,101973.83
2019-05-29T19:59:14.676Z,101970.75
2019-05-29T20:01:42.222Z,101976.72
2019-05-29T20:04:09.370Z,101980.38
2019-05-29T20:06:37.242Z,101988.67
2019-05-29T20:09:05.118Z,101984.73
2019-05-29T20:11:33.693Z,101986.98
2019-05-29T20:14:00.713Z,101994.41
2019-05-29T20:16:28.010Z,102001.09
2019-05-29T20:18:55.089Z,102001.81
2019-05-29T20:21:21.995Z,102000.45
2019-05-29T20:23:49.599Z,102001.89
2019-05-29T20:26:16.547Z,102005.70
2019-05-29T20:28:43.845Z,102011.53
2019-05-29T20:31:12.129Z,102015.41
2019-05-29T20:33:39.707Z,102018.06
2019-05-29T20:36:06.627Z,102018.45
2019-05-29T20:38:33.582Z,102021.72
2019-05-29T20:41:00.555Z,102021.09
2019-05-29T20:43:27.975Z,102026.16
2019-05-29T20:45:54.826Z,102029.90
2019-05-29T20:48:21.905Z,102028.27
2019-05-29T20:50:48.853Z,102035.67
2019-05-29T20:53:15.623Z,102037.08
2019-05-29T20:55:43.538Z,102040.20
2019-05-29T20:58:24.045Z,102038.42
2019-05-29T21:00:40.378Z,102045.86
2019-05-29T21:03:08.052Z,102052.50
2019-05-29T21:05:34.754Z,102050.71
2019-05-29T21:08:02.381Z,102061.64
2019-05-29T21:10:31.109Z,102053.13
2019-05-29T21:12:58.130Z,102056.77
2019-05-29T21:15:25.956Z,102060.14
2019-05-29T21:17:52.945Z,102063.63
2019-05-29T21:20:20.049Z,102066.81
2019-05-29T21:22:47.084Z,102061.55
2019-05-29T21:25:18.618Z,102071.89
2019-05-29T21:27:46.902Z,102070.91
2019-05-29T21:30:12.337Z,102077.81
2019-05-29T21:32:40.163Z,102085.14
2019-05-29T21:35:07.788Z,102086.80
2019-05-29T21:37:36.110Z,102084.15
2019-05-29T21:40:03.607Z,102090.80
2019-05-29T21:42:30.604Z,102092.21
2019-05-29T21:44:57.857Z,102088.61
2019-05-29T21:47:25.028Z,102098.31
2019-05-29T21:49:52.005Z,102096.83
2019-05-29T21:52:19.253Z,102096.36
2019-05-29T21:54:46.198Z,102103.77
2019-05-29T21:57:12.996Z,102102.62
2019-05-29T21:59:39.810Z,102104.08
2019-05-29T22:02:06.771Z,102107.22
2019-05-29T22:04:34.099Z,102105.80
2019-05-29T22:07:00.818Z,102107.05
2019-05-29T22:09:29.235Z,102113.07
2019-05-29T22:11:56.586Z,102115.85
2019-05-29T22:14:23.862Z,102117.36
2019-05-29T22:16:50.955Z,102118.26
2019-05-29T22:19:17.918Z,102123.52
2019-05-29T22:21:45.151Z,102121.66
2019-05-29T22:24:12.211Z,102126.48
2019-05-29T22:26:38.902Z,102128.70
2019-05-29T22:29:17.161Z,102131.27
2019-05-29T22:31:35.483Z,102133.89
2019-05-29T22:34:02.349Z,102132.44
2019-05-29T22:36:29.907Z,102126.67
2019-05-29T22:38:57.470Z,102132.83
2019-05-29T22:41:24.357Z,102131.03
2019-05-29T22:43:51.515Z,102136.30
2019-05-29T22:46:18.615Z,102135.36
2019-05-29T22:48:45.685Z,102134.91
2019-05-29T22:51:12.920Z,102138.36
2019-05-29T22:53:39.684Z,102144.38
2019-05-29T22:56:06.758Z,102143.47
2019-05-29T22:58:33.546Z,102144.66
2019-05-29T23:01:00.411Z,102148.60
2019-05-29T23:03:27.437Z,102149.41
2019-05-29T23:05:54.317Z,102146.17
2019-05-29T23:08:21.332Z,102147.91
2019-05-29T23:10:48.280Z,102146.27
2019-05-29T23:13:15.428Z,102149.84
2019-05-29T23:15:42.364Z,102143.12
2019-05-29T23:18:09.548Z,102143.96
2019-05-29T23:20:36.473Z,102156.13
2019-05-29T23:23:03.171Z,102152.23
2019-05-29T23:25:30.145Z,102154.81
2019-05-29T23:27:58.915Z,102151.03
2019-05-29T23:30:25.894Z,102150.61
2019-05-29T23:32:53.050Z,102161.34
2019-05-29T23:35:20.193Z,102162.13
2019-05-29T23:37:47.248Z,102167.00
2019-05-29T23:40:14.315Z,102168.66
2019-05-29T23:42:42.085Z,102168.09
2019-05-29T23:45:09.308Z,102169.27
2019-05-29T23:47:36.093Z,102173.35
2019-05-29T23:50:04.493Z,102182.09
2019-05-29T23:52:31.498Z,102180.44
2019-05-29T23:54:59.767Z,102185.95
2019-05-29T23:57:26.614Z,102185.70
